Ariel, Mississippi
Current Conditions -  °F | °C
As of 11:53 PM on Wednesday 26 Nov 2014 (Local Time) from KMCB Reporting Station
Clear Clear  
Wind Chill: 47°   Ceiling: Unl
Heat Index: 49°   Visibility: 10mi
Dew Point: 39°   Wind: 5mph
Humidity: 69%   Direction: 310°NW
Pressure: 30.25"   Gusts: NA
Location:  31.1819°N, 90.9008°W
Report Text: KMCB 270553Z AUTO 31004KT 10SM CLR 09/04 A3025 RMK AO2 SLP243 T00940039 10150 20094 401941017 51016
Loading
Personal Weather Stations






























Interactive Weather Map New forecast layout! Learn more

10-Day Weather Forecast

Advertisements
Track Severe Weather on mobile